createdAt,value
2023-01-13T00:01:47.019Z,8.00
2023-01-13T00:04:13.769Z,7.90
2023-01-13T00:06:40.555Z,7.90
2023-01-13T00:09:07.312Z,7.80
2023-01-13T00:11:34.529Z,7.70
2023-01-13T00:14:01.389Z,7.70
2023-01-13T00:16:28.354Z,7.60
2023-01-13T00:18:55.071Z,7.60
2023-01-13T00:21:24.879Z,7.50
2023-01-13T00:23:53.939Z,7.50
2023-01-13T00:26:35.805Z,7.40
2023-01-13T00:29:02.729Z,7.40
2023-01-13T00:31:30.123Z,7.30
2023-01-13T00:33:58.319Z,7.30
2023-01-13T00:36:25.118Z,7.30
2023-01-13T00:38:52.407Z,7.30
2023-01-13T00:41:21.639Z,7.40
2023-01-13T00:43:49.336Z,7.40
2023-01-13T00:46:18.998Z,7.40
2023-01-13T00:48:47.086Z,7.40
2023-01-13T00:51:16.945Z,7.40
2023-01-13T00:53:46.082Z,7.30
2023-01-13T00:56:21.875Z,7.40
2023-01-13T00:59:01.250Z,7.40
2023-01-13T01:01:28.197Z,7.40
2023-01-13T01:03:55.012Z,7.50
2023-01-13T01:06:24.415Z,7.60
2023-01-13T01:08:52.419Z,7.50
2023-01-13T01:11:28.737Z,7.50
2023-01-13T01:13:57.735Z,7.50
2023-01-13T01:16:27.238Z,7.50
2023-01-13T01:18:55.115Z,7.50
2023-01-13T01:21:23.611Z,7.50
2023-01-13T01:23:52.422Z,7.50
2023-01-13T01:26:24.892Z,7.50
2023-01-13T01:28:52.256Z,7.50
2023-01-13T01:31:21.802Z,7.50
2023-01-13T01:33:49.730Z,7.50
2023-01-13T01:36:19.079Z,7.50
2023-01-13T01:38:48.034Z,7.50
2023-01-13T01:41:18.408Z,7.50
2023-01-13T01:44:04.520Z,7.50
2023-01-13T01:46:37.406Z,7.60
2023-01-13T01:49:13.895Z,7.60
2023-01-13T01:52:09.158Z,7.60
2023-01-13T01:55:01.155Z,7.60
2023-01-13T01:57:49.585Z,7.60
2023-01-13T02:00:16.681Z,7.60
2023-01-13T02:02:47.031Z,7.50
2023-01-13T02:05:14.503Z,7.50
2023-01-13T02:07:43.234Z,7.50
2023-01-13T02:10:13.457Z,7.50
2023-01-13T02:12:42.267Z,7.40
2023-01-13T02:15:13.656Z,7.40
2023-01-13T02:17:59.319Z,7.40
2023-01-13T02:20:52.090Z,7.40
2023-01-13T02:23:57.609Z,7.40
2023-01-13T02:26:29.934Z,7.30
2023-01-13T02:29:34.238Z,7.30
2023-01-13T02:32:11.463Z,7.40
2023-01-13T02:34:52.222Z,7.40
2023-01-13T02:37:29.881Z,7.40
2023-01-13T02:40:46.147Z,7.50
2023-01-13T02:43:42.336Z,7.50
2023-01-13T02:46:20.600Z,7.50
2023-01-13T02:48:49.703Z,7.60
2023-01-13T02:51:20.568Z,7.60
2023-01-13T02:54:02.179Z,7.60
2023-01-13T02:56:29.353Z,7.50
2023-01-13T02:58:57.665Z,7.50
2023-01-13T03:01:25.059Z,7.50
2023-01-13T03:03:51.883Z,7.50
2023-01-13T03:06:33.233Z,7.60
2023-01-13T03:09:22.296Z,7.50
2023-01-13T03:12:08.612Z,7.50
2023-01-13T03:14:47.896Z,7.40
2023-01-13T03:17:37.735Z,7.40
2023-01-13T03:20:12.378Z,7.50
2023-01-13T03:22:56.670Z,7.40
2023-01-13T03:25:28.895Z,7.40
2023-01-13T03:28:05.160Z,7.40
2023-01-13T03:30:49.971Z,7.30
2023-01-13T03:33:26.952Z,7.30
2023-01-13T03:35:59.088Z,7.30
2023-01-13T03:38:33.413Z,7.40
2023-01-13T03:41:08.927Z,7.40
2023-01-13T03:44:17.126Z,7.50
2023-01-13T03:47:01.005Z,7.70
2023-01-13T03:49:51.508Z,7.70
2023-01-13T03:52:46.002Z,7.80
2023-01-13T03:55:23.127Z,7.90
2023-01-13T03:58:01.455Z,7.90
2023-01-13T04:00:38.678Z,7.90
2023-01-13T04:03:08.086Z,7.90
2023-01-13T04:05:41.280Z,7.90
2023-01-13T04:08:28.158Z,7.90
2023-01-13T04:11:05.632Z,7.80
2023-01-13T04:13:36.952Z,7.80
2023-01-13T04:16:07.332Z,7.70
2023-01-13T04:18:38.484Z,7.70
2023-01-13T04:21:06.502Z,7.60
2023-01-13T04:23:34.145Z,7.60
2023-01-13T04:26:01.047Z,7.50
2023-01-13T04:28:27.954Z,7.50
2023-01-13T04:30:54.848Z,7.50
2023-01-13T04:33:21.717Z,7.50
2023-01-13T04:35:48.830Z,7.60
2023-01-13T04:38:18.808Z,7.60
2023-01-13T04:40:45.807Z,7.50
2023-01-13T04:43:12.754Z,7.50
2023-01-13T04:45:39.507Z,7.50
2023-01-13T04:48:06.738Z,7.40
2023-01-13T04:50:33.894Z,7.30
2023-01-13T04:53:01.297Z,7.30
2023-01-13T04:55:28.370Z,7.20
2023-01-13T04:57:55.317Z,7.20
2023-01-13T05:00:23.536Z,7.30
2023-01-13T05:02:51.601Z,7.40
2023-01-13T05:05:21.329Z,7.30
2023-01-13T05:07:48.093Z,7.30
2023-01-13T05:10:15.093Z,7.30
2023-01-13T05:13:00.343Z,7.20
2023-01-13T05:15:45.848Z,7.20
2023-01-13T05:18:13.196Z,7.20
2023-01-13T05:20:40.039Z,7.20
2023-01-13T05:23:25.607Z,7.20
2023-01-13T05:25:53.689Z,7.20
2023-01-13T05:28:20.514Z,7.20
2023-01-13T05:30:49.386Z,7.20
2023-01-13T05:33:18.788Z,7.30
2023-01-13T05:35:47.079Z,7.40
2023-01-13T05:38:14.962Z,7.40
2023-01-13T05:41:01.316Z,7.30
2023-01-13T05:43:28.792Z,7.30
2023-01-13T05:46:01.496Z,7.30
2023-01-13T05:48:39.133Z,7.20
2023-01-13T05:51:08.539Z,7.20
2023-01-13T05:53:35.581Z,7.20
2023-01-13T05:56:07.218Z,7.30
2023-01-13T05:58:34.833Z,7.30
2023-01-13T06:01:04.280Z,7.30
2023-01-13T06:03:31.402Z,7.30
2023-01-13T06:06:01.611Z,7.40
2023-01-13T06:08:31.128Z,7.40
2023-01-13T06:10:57.991Z,7.40
2023-01-13T06:13:25.477Z,7.40
2023-01-13T06:15:58.252Z,7.40
2023-01-13T06:18:26.019Z,7.40
2023-01-13T06:20:53.837Z,7.40
2023-01-13T06:23:20.726Z,7.40
2023-01-13T06:25:58.752Z,7.50
2023-01-13T06:28:25.625Z,7.50
2023-01-13T06:30:57.852Z,7.60
2023-01-13T06:33:31.972Z,7.60
2023-01-13T06:36:02.895Z,7.70
2023-01-13T06:38:33.659Z,7.70
2023-01-13T06:41:01.621Z,7.70
2023-01-13T06:43:28.583Z,7.70
2023-01-13T06:45:56.404Z,7.80
2023-01-13T06:48:29.967Z,7.80
2023-01-13T06:50:56.854Z,7.80
2023-01-13T06:53:23.643Z,7.80
2023-01-13T06:55:50.402Z,7.80
2023-01-13T06:58:17.335Z,7.90
2023-01-13T07:00:46.729Z,7.90
2023-01-13T07:03:16.122Z,7.90
2023-01-13T07:05:44.478Z,7.90
2023-01-13T07:08:11.262Z,7.90
2023-01-13T07:10:40.100Z,7.90
2023-01-13T07:13:25.392Z,7.90
2023-01-13T07:16:00.416Z,7.90
2023-01-13T07:18:31.545Z,7.90
2023-01-13T07:21:04.170Z,7.90
2023-01-13T07:23:34.551Z,7.90
2023-01-13T07:26:02.223Z,7.90
2023-01-13T07:28:29.999Z,7.90
2023-01-13T07:30:57.546Z,7.90
2023-01-13T07:33:24.843Z,8.00
2023-01-13T07:36:00.337Z,7.90
2023-01-13T07:38:27.833Z,8.00
2023-01-13T07:40:54.940Z,8.00
2023-01-13T07:43:33.925Z,8.00
2023-01-13T07:46:03.238Z,8.00
2023-01-13T07:48:31.282Z,8.00
2023-01-13T07:51:05.480Z,8.10
2023-01-13T07:53:33.126Z,8.10
2023-01-13T07:56:00.759Z,8.10
2023-01-13T07:58:28.496Z,8.10
2023-01-13T08:00:57.256Z,8.20
2023-01-13T08:03:26.831Z,8.20
2023-01-13T08:05:54.162Z,8.20
2023-01-13T08:08:22.326Z,8.20
2023-01-13T08:10:49.245Z,8.20
2023-01-13T08:13:21.187Z,8.20
2023-01-13T08:15:54.037Z,8.20
2023-01-13T08:18:22.439Z,8.20
2023-01-13T08:20:53.449Z,8.30
2023-01-13T08:23:21.993Z,8.30
2023-01-13T08:25:50.427Z,8.30
2023-01-13T08:28:18.861Z,8.30
2023-01-13T08:30:47.498Z,8.20
2023-01-13T08:33:14.388Z,8.20
2023-01-13T08:35:42.158Z,8.20
2023-01-13T08:38:11.688Z,8.20
2023-01-13T08:40:40.130Z,8.10
2023-01-13T08:43:07.088Z,8.00
2023-01-13T08:45:34.659Z,8.00
2023-01-13T08:48:01.561Z,7.90
2023-01-13T08:50:28.813Z,7.90
2023-01-13T08:52:55.763Z,7.90
2023-01-13T08:55:22.721Z,7.80
2023-01-13T08:57:49.569Z,7.80
2023-01-13T09:00:17.250Z,7.80
2023-01-13T09:02:46.608Z,7.80
2023-01-13T09:05:13.526Z,7.80
2023-01-13T09:07:40.483Z,7.80
2023-01-13T09:10:08.405Z,7.80
2023-01-13T09:12:54.170Z,7.80
2023-01-13T09:15:21.849Z,7.80
2023-01-13T09:17:50.082Z,7.90
2023-01-13T09:20:17.150Z,7.90
2023-01-13T09:22:44.298Z,7.90
2023-01-13T09:25:12.642Z,7.90
2023-01-13T09:27:39.822Z,7.90
2023-01-13T09:30:07.619Z,7.90
2023-01-13T09:32:34.553Z,7.90
2023-01-13T09:35:01.492Z,7.90
2023-01-13T09:37:34.299Z,8.00
2023-01-13T09:40:02.514Z,8.00
2023-01-13T09:43:06.541Z,8.10
2023-01-13T09:45:47.800Z,8.20
2023-01-13T09:48:52.095Z,8.20
2023-01-13T09:51:30.958Z,8.30
2023-01-13T09:54:07.716Z,8.30
2023-01-13T09:56:34.508Z,8.30
2023-01-13T09:59:01.797Z,8.20
2023-01-13T10:01:35.043Z,8.30
2023-01-13T10:04:15.758Z,8.30
2023-01-13T10:06:47.522Z,8.30
2023-01-13T10:09:31.155Z,8.30
2023-01-13T10:12:19.182Z,8.40
2023-01-13T10:14:56.528Z,8.40
2023-01-13T10:17:36.484Z,8.30
2023-01-13T10:20:12.852Z,8.40
2023-01-13T10:22:52.116Z,8.40
2023-01-13T10:25:25.160Z,8.30
2023-01-13T10:27:54.892Z,8.40
2023-01-13T10:30:27.488Z,8.40
2023-01-13T10:33:00.954Z,8.50
2023-01-13T10:35:59.787Z,8.50
2023-01-13T10:38:28.613Z,8.50
2023-01-13T10:41:02.147Z,8.60
2023-01-13T10:43:30.268Z,8.60
2023-01-13T10:45:57.884Z,8.60
2023-01-13T10:48:34.433Z,8.60
2023-01-13T10:51:42.054Z,8.70
2023-01-13T10:54:12.688Z,8.70
2023-01-13T10:56:46.514Z,8.80
2023-01-13T10:59:24.837Z,8.80
2023-01-13T11:02:24.762Z,8.90
2023-01-13T11:07:52.610Z,9.00
2023-01-13T11:10:28.024Z,9.00
2023-01-13T11:13:15.948Z,9.10
2023-01-13T11:16:07.570Z,9.10
2023-01-13T11:19:12.700Z,9.10
2023-01-13T11:21:52.063Z,9.10
2023-01-13T11:24:43.688Z,9.10
2023-01-13T11:27:16.857Z,9.20
2023-01-13T11:30:09.759Z,9.20
2023-01-13T11:33:07.353Z,9.20
2023-01-13T11:35:40.691Z,9.30
2023-01-13T11:38:36.739Z,9.40
2023-01-13T11:41:28.831Z,9.40
2023-01-13T11:44:15.563Z,9.50
2023-01-13T11:46:42.568Z,9.50
2023-01-13T11:49:30.850Z,9.60
2023-01-13T11:52:42.149Z,9.60
2023-01-13T11:55:24.771Z,9.60
2023-01-13T11:58:23.445Z,9.60
2023-01-13T12:01:23.700Z,9.60
2023-01-13T12:04:48.116Z,9.50
2023-01-13T12:07:23.352Z,9.50
2023-01-13T12:10:21.223Z,9.50
2023-01-13T12:13:00.801Z,9.50
2023-01-13T12:16:07.331Z,9.50
2023-01-13T12:19:07.606Z,9.50
2023-01-13T12:22:05.030Z,9.40
2023-01-13T12:24:36.726Z,9.50
2023-01-13T12:27:12.924Z,9.50
2023-01-13T12:29:40.053Z,9.50
2023-01-13T12:32:20.998Z,9.60
2023-01-13T12:35:13.235Z,9.60
2023-01-13T12:37:48.032Z,9.60
2023-01-13T12:40:23.554Z,9.60
2023-01-13T12:43:28.140Z,9.60
2023-01-13T12:46:35.250Z,9.70
2023-01-13T12:49:17.775Z,9.70
2023-01-13T12:51:56.814Z,9.70
2023-01-13T12:54:45.428Z,9.70
2023-01-13T12:57:22.591Z,9.80
2023-01-13T13:00:06.081Z,9.90
2023-01-13T13:02:38.814Z,9.90
2023-01-13T13:05:14.761Z,10.10
2023-01-13T13:08:04.610Z,10.00
2023-01-13T13:10:36.546Z,9.90
2023-01-13T13:13:20.595Z,9.90
2023-01-13T13:15:51.207Z,9.90
2023-01-13T13:18:18.017Z,9.90
2023-01-13T13:21:09.867Z,9.90
2023-01-13T13:23:59.150Z,9.90
2023-01-13T13:26:39.635Z,10.00
2023-01-13T13:29:26.027Z,10.00
2023-01-13T13:32:28.857Z,10.00
2023-01-13T13:35:20.499Z,10.00
2023-01-13T13:38:41.577Z,10.10
2023-01-13T13:41:37.156Z,10.00
2023-01-13T13:44:43.180Z,10.00
2023-01-13T13:47:10.370Z,10.00
2023-01-13T13:49:42.984Z,10.00
2023-01-13T13:52:38.025Z,10.00
2023-01-13T13:55:20.622Z,9.90
2023-01-13T13:57:50.302Z,9.90
2023-01-13T14:00:30.035Z,9.90
2023-01-13T14:03:02.110Z,9.90
2023-01-13T14:05:36.672Z,9.90
2023-01-13T14:08:18.204Z,9.90
2023-01-13T14:10:48.323Z,9.90
2023-01-13T14:13:20.862Z,9.90
2023-01-13T14:15:56.394Z,9.80
2023-01-13T14:18:24.195Z,9.80
2023-01-13T14:21:00.600Z,9.80
2023-01-13T14:23:30.702Z,9.70
2023-01-13T14:26:07.514Z,9.70
2023-01-13T14:28:40.175Z,9.70
2023-01-13T14:31:09.311Z,9.60
2023-01-13T14:33:49.395Z,9.60
2023-01-13T14:36:28.049Z,9.60
2023-01-13T14:39:04.106Z,9.60
2023-01-13T14:41:39.415Z,9.60
2023-01-13T14:44:32.320Z,9.50
2023-01-13T14:47:05.165Z,9.50
2023-01-13T14:49:42.366Z,9.40
2023-01-13T14:52:23.348Z,9.30
2023-01-13T14:55:14.556Z,9.20
2023-01-13T14:57:41.785Z,9.20
2023-01-13T15:00:14.947Z,9.10
2023-01-13T15:02:48.036Z,9.10
2023-01-13T15:05:17.821Z,9.20
2023-01-13T15:08:11.396Z,9.30
2023-01-13T15:10:50.261Z,9.30
2023-01-13T15:13:33.513Z,9.20
2023-01-13T15:16:06.168Z,9.20
2023-01-13T15:18:33.190Z,9.20
2023-01-13T15:21:01.698Z,9.20
2023-01-13T15:23:29.684Z,9.20
2023-01-13T15:25:59.388Z,9.20
2023-01-13T15:28:27.683Z,9.20
2023-01-13T15:30:55.844Z,9.20
2023-01-13T15:33:23.039Z,9.20
2023-01-13T15:35:52.998Z,9.20
2023-01-13T15:38:22.494Z,9.10
2023-01-13T15:40:51.094Z,9.00
2023-01-13T15:43:41.759Z,9.00
2023-01-13T15:46:36.509Z,9.00
2023-01-13T15:49:21.143Z,9.00
2023-01-13T15:51:49.907Z,9.00
2023-01-13T15:54:16.738Z,9.00
2023-01-13T15:56:43.620Z,8.90
2023-01-13T15:59:17.483Z,8.80
2023-01-13T16:01:46.228Z,8.90
2023-01-13T16:04:13.261Z,8.90
2023-01-13T16:06:40.166Z,8.90
2023-01-13T16:09:08.764Z,9.00
2023-01-13T16:11:35.616Z,9.00
2023-01-13T16:14:02.417Z,9.00
2023-01-13T16:16:29.701Z,9.10
2023-01-13T16:18:56.900Z,9.10
2023-01-13T16:21:25.084Z,9.10
2023-01-13T16:23:53.089Z,9.10
2023-01-13T16:26:27.940Z,9.10
2023-01-13T16:28:57.765Z,9.10
2023-01-13T16:31:32.417Z,9.10
2023-01-13T16:34:01.219Z,9.10
2023-01-13T16:36:30.368Z,9.00
2023-01-13T16:38:57.391Z,9.00
2023-01-13T16:41:27.005Z,9.00
2023-01-13T16:43:54.363Z,9.00
2023-01-13T16:46:30.461Z,8.90
2023-01-13T16:49:01.965Z,8.90
2023-01-13T16:51:29.937Z,8.80
2023-01-13T16:53:57.004Z,8.60
2023-01-13T16:56:26.817Z,8.50
2023-01-13T16:58:57.191Z,8.30
2023-01-13T17:01:27.988Z,8.20
2023-01-13T17:03:55.633Z,8.10
2023-01-13T17:06:31.719Z,8.00
2023-01-13T17:09:08.368Z,7.80
2023-01-13T17:11:35.343Z,7.80
2023-01-13T17:14:18.492Z,7.70
2023-01-13T17:16:49.039Z,7.60
2023-01-13T17:19:16.311Z,7.60
2023-01-13T17:21:45.741Z,7.60
2023-01-13T17:24:15.214Z,7.60
2023-01-13T17:26:47.372Z,7.60
2023-01-13T17:29:27.247Z,7.70
2023-01-13T17:31:58.497Z,7.60
2023-01-13T17:34:26.201Z,7.70
2023-01-13T17:36:53.141Z,7.70
2023-01-13T17:39:27.325Z,7.60
2023-01-13T17:41:56.033Z,7.60
2023-01-13T17:44:23.625Z,7.60
2023-01-13T17:47:01.244Z,7.50
2023-01-13T17:49:29.352Z,7.50
2023-01-13T17:51:58.801Z,7.50
2023-01-13T17:54:29.556Z,7.50
2023-01-13T17:57:01.110Z,7.50
2023-01-13T17:59:28.985Z,7.40
2023-01-13T18:01:55.887Z,7.40
2023-01-13T18:04:25.847Z,7.30
2023-01-13T18:06:57.976Z,7.20
2023-01-13T18:09:26.809Z,7.20
2023-01-13T18:11:53.575Z,7.10
2023-01-13T18:14:22.878Z,7.10
2023-01-13T18:16:49.838Z,7.10
2023-01-13T18:19:35.396Z,7.10
2023-01-13T18:22:21.868Z,7.10
2023-01-13T18:25:09.326Z,7.10
2023-01-13T18:27:38.943Z,7.10
2023-01-13T18:30:09.281Z,7.10
2023-01-13T18:32:36.597Z,7.20
2023-01-13T18:35:07.198Z,7.20
2023-01-13T18:37:38.841Z,7.20
2023-01-13T18:40:08.336Z,7.10
2023-01-13T18:42:54.318Z,7.20
2023-01-13T18:45:27.064Z,7.20
2023-01-13T18:47:55.993Z,7.20
2023-01-13T18:50:23.958Z,7.30
2023-01-13T18:52:51.385Z,7.50
2023-01-13T18:55:19.088Z,7.60
2023-01-13T18:57:50.102Z,7.70
2023-01-13T19:00:21.827Z,7.80
2023-01-13T19:02:51.248Z,7.80
2023-01-13T19:05:19.113Z,7.80
2023-01-13T19:07:50.829Z,7.70
2023-01-13T19:10:23.691Z,7.80
2023-01-13T19:12:51.747Z,7.80
2023-01-13T19:15:18.780Z,7.70
2023-01-13T19:17:48.523Z,7.70
2023-01-13T19:20:19.123Z,7.70
2023-01-13T19:22:53.863Z,7.80
2023-01-13T19:25:20.767Z,7.80
2023-01-13T19:27:48.804Z,7.80
2023-01-13T19:30:20.277Z,7.70
2023-01-13T19:32:47.698Z,7.60
2023-01-13T19:35:17.881Z,7.60
2023-01-13T19:37:45.981Z,7.60
2023-01-13T19:40:19.506Z,7.60
2023-01-13T19:43:04.767Z,7.60
2023-01-13T19:45:33.884Z,7.70
2023-01-13T19:48:02.597Z,7.80
2023-01-13T19:50:29.571Z,7.80
2023-01-13T19:52:57.117Z,7.80
2023-01-13T19:55:24.196Z,7.90
2023-01-13T19:57:53.494Z,7.90
2023-01-13T20:00:20.920Z,8.00
2023-01-13T20:02:49.924Z,8.00
2023-01-13T20:05:22.217Z,7.90
2023-01-13T20:07:54.175Z,7.90
2023-01-13T20:10:23.553Z,7.90
2023-01-13T20:12:52.420Z,8.00
2023-01-13T20:15:19.228Z,7.90
2023-01-13T20:17:49.612Z,7.90
2023-01-13T20:20:20.846Z,7.90
2023-01-13T20:22:49.723Z,7.90
2023-01-13T20:25:17.356Z,8.00
2023-01-13T20:27:54.973Z,7.90
2023-01-13T20:30:23.152Z,7.90
2023-01-13T20:32:50.324Z,7.80
2023-01-13T20:35:18.468Z,7.70
2023-01-13T20:37:46.497Z,7.70
2023-01-13T20:40:17.894Z,7.80
2023-01-13T20:42:45.106Z,7.90
2023-01-13T20:45:18.141Z,7.90
2023-01-13T20:47:47.018Z,8.00
2023-01-13T20:50:14.710Z,7.90
2023-01-13T20:52:41.812Z,7.80
2023-01-13T20:55:09.305Z,7.60
2023-01-13T20:57:37.241Z,7.50
2023-01-13T21:00:05.262Z,7.40
2023-01-13T21:02:32.231Z,7.40
2023-01-13T21:04:59.074Z,7.30
2023-01-13T21:07:25.983Z,7.30
2023-01-13T21:09:52.775Z,7.30
2023-01-13T21:12:38.002Z,7.20
2023-01-13T21:15:17.529Z,7.30
2023-01-13T21:18:03.852Z,7.30
2023-01-13T21:20:36.092Z,7.30
2023-01-13T21:23:07.582Z,7.30
2023-01-13T21:25:36.448Z,7.30
2023-01-13T21:28:05.686Z,7.30
2023-01-13T21:30:34.652Z,7.30
2023-01-13T21:33:04.348Z,7.30
2023-01-13T21:35:31.298Z,7.30
2023-01-13T21:37:58.127Z,7.30
2023-01-13T21:40:25.042Z,7.20
2023-01-13T21:43:10.303Z,7.20
2023-01-13T21:45:57.708Z,7.20
2023-01-13T21:48:25.682Z,7.30
2023-01-13T21:50:52.784Z,7.20
2023-01-13T21:53:20.606Z,7.30
2023-01-13T21:55:52.321Z,7.30
2023-01-13T21:58:19.228Z,7.40
2023-01-13T22:00:46.336Z,7.40
2023-01-13T22:03:19.979Z,7.40
2023-01-13T22:05:52.679Z,7.50
2023-01-13T22:08:19.635Z,7.50
2023-01-13T22:10:57.807Z,7.60
2023-01-13T22:13:47.771Z,7.70
2023-01-13T22:16:15.356Z,7.80
2023-01-13T22:18:42.178Z,7.90
2023-01-13T22:21:09.043Z,7.80
2023-01-13T22:23:35.874Z,7.80
2023-01-13T22:26:07.069Z,7.80
2023-01-13T22:28:40.947Z,7.80
2023-01-13T22:31:11.764Z,7.80
2023-01-13T22:33:39.799Z,7.80
2023-01-13T22:36:07.548Z,7.80
2023-01-13T22:38:35.008Z,7.80
2023-01-13T22:41:04.569Z,7.80
2023-01-13T22:43:31.747Z,7.70
2023-01-13T22:46:04.147Z,7.70
2023-01-13T22:48:30.997Z,7.70
2023-01-13T22:51:04.262Z,7.70
2023-01-13T22:53:31.138Z,7.70
2023-01-13T22:55:58.831Z,7.70
2023-01-13T22:58:26.576Z,7.70
2023-01-13T23:00:53.565Z,7.60
2023-01-13T23:03:21.819Z,7.60
2023-01-13T23:05:49.118Z,7.60
2023-01-13T23:08:17.089Z,7.60
2023-01-13T23:10:43.970Z,7.60
2023-01-13T23:13:10.860Z,7.70
2023-01-13T23:15:37.704Z,7.70
2023-01-13T23:18:07.584Z,7.80
2023-01-13T23:20:34.439Z,7.90
2023-01-13T23:23:01.237Z,8.00
2023-01-13T23:25:28.022Z,8.00
2023-01-13T23:27:55.689Z,8.00
2023-01-13T23:30:25.061Z,8.00
2023-01-13T23:32:51.874Z,8.10
2023-01-13T23:35:21.035Z,8.10
2023-01-13T23:37:47.823Z,8.10
2023-01-13T23:40:14.857Z,8.00
2023-01-13T23:42:41.749Z,8.00
2023-01-13T23:45:09.425Z,8.00
2023-01-13T23:47:36.455Z,8.00
2023-01-13T23:50:03.393Z,8.10
2023-01-13T23:52:30.371Z,8.10
2023-01-13T23:54:58.282Z,8.10
2023-01-13T23:57:25.573Z,8.10
2023-01-13T23:59:52.503Z,8.10
